createdAt,value
2022-08-17T00:00:43.262Z,89.29
2022-08-17T00:03:17.160Z,89.28
2022-08-17T00:05:47.980Z,89.17
2022-08-17T00:08:56.400Z,89.07
2022-08-17T00:11:38.873Z,89.08
2022-08-17T00:14:15.220Z,88.88
2022-08-17T00:16:56.074Z,89.19
2022-08-17T00:19:27.191Z,88.74
2022-08-17T00:22:31.423Z,88.83
2022-08-17T00:24:48.119Z,88.93
2022-08-17T00:27:16.181Z,88.95
2022-08-17T00:29:46.185Z,88.65
2022-08-17T00:33:12.632Z,88.98
2022-08-17T00:35:09.748Z,88.81
2022-08-17T00:37:37.869Z,89.12
2022-08-17T00:40:08.462Z,89.04
2022-08-17T00:42:36.808Z,88.86
2022-08-17T00:45:07.627Z,88.92
2022-08-17T00:47:35.631Z,88.62
2022-08-17T00:50:05.798Z,88.55
2022-08-17T00:52:40.935Z,88.28
2022-08-17T00:55:10.061Z,88.38
2022-08-17T00:57:44.360Z,88.17
2022-08-17T01:00:28.896Z,87.96
2022-08-17T01:03:09.799Z,88.01
2022-08-17T01:05:42.317Z,87.55
2022-08-17T01:08:15.022Z,87.69
2022-08-17T01:13:44.882Z,87.40
2022-08-17T01:16:25.581Z,87.13
2022-08-17T01:18:59.409Z,86.98
2022-08-17T01:21:58.038Z,86.85
2022-08-17T01:24:28.403Z,86.72
2022-08-17T01:26:57.654Z,86.96
2022-08-17T01:29:26.728Z,87.16
2022-08-17T01:31:58.880Z,87.03
2022-08-17T01:34:42.604Z,86.98
2022-08-17T01:37:15.540Z,86.50
2022-08-17T01:39:55.543Z,85.91
2022-08-17T01:42:34.559Z,85.42
2022-08-17T01:45:10.693Z,85.08
2022-08-17T01:47:40.489Z,84.89
2022-08-17T01:50:13.080Z,84.47
2022-08-17T01:52:42.080Z,84.29
2022-08-17T01:55:11.215Z,84.28
2022-08-17T01:57:39.301Z,84.12
2022-08-17T02:00:11.542Z,84.53
2022-08-17T02:02:40.322Z,84.36
2022-08-17T02:05:09.395Z,84.06
2022-08-17T02:07:59.356Z,84.00
2022-08-17T02:10:25.597Z,83.71
2022-08-17T02:13:05.309Z,84.35
2022-08-17T02:15:35.470Z,84.15
2022-08-17T02:18:06.036Z,83.50
2022-08-17T02:20:41.894Z,83.50
2022-08-17T02:23:14.577Z,82.57
2022-08-17T02:25:48.515Z,82.04
2022-08-17T02:28:20.154Z,80.97
2022-08-17T02:31:00.282Z,81.41
2022-08-17T02:33:42.816Z,80.56
2022-08-17T02:36:14.570Z,79.92
2022-08-17T02:38:44.471Z,79.73
2022-08-17T02:41:13.565Z,79.05
2022-08-17T02:43:41.625Z,78.22
2022-08-17T02:46:25.871Z,78.00
2022-08-17T02:48:53.967Z,77.64
2022-08-17T02:51:22.160Z,77.19
2022-08-17T02:53:50.530Z,76.73
2022-08-17T02:56:18.590Z,76.18
2022-08-17T02:58:47.000Z,75.54
2022-08-17T03:01:15.460Z,74.96
2022-08-17T03:03:43.749Z,74.18
2022-08-17T03:06:11.902Z,73.64
2022-08-17T03:08:41.401Z,73.22
2022-08-17T03:11:09.495Z,72.80
2022-08-17T03:13:38.209Z,72.57
2022-08-17T03:16:07.504Z,72.62
2022-08-17T03:18:35.636Z,72.59
2022-08-17T03:21:04.960Z,72.39
2022-08-17T03:23:33.304Z,72.67
2022-08-17T03:26:01.790Z,72.60
2022-08-17T03:28:30.352Z,72.57
2022-08-17T03:31:00.087Z,72.96
2022-08-17T03:33:28.084Z,73.10
2022-08-17T03:35:56.138Z,73.04
2022-08-17T03:38:26.554Z,73.00
2022-08-17T03:40:58.585Z,72.89
2022-08-17T03:43:30.682Z,72.99
2022-08-17T03:46:28.386Z,73.15
2022-08-17T03:49:28.190Z,72.94
2022-08-17T03:52:16.001Z,73.33
2022-08-17T03:55:05.574Z,73.49
2022-08-17T03:57:33.704Z,73.58
2022-08-17T04:00:01.831Z,73.81
2022-08-17T04:02:41.435Z,73.27
2022-08-17T04:05:10.090Z,73.88
2022-08-17T04:07:38.169Z,73.82
2022-08-17T04:10:07.700Z,73.54
2022-08-17T04:12:50.216Z,73.73
2022-08-17T04:15:21.600Z,73.83
2022-08-17T04:17:49.809Z,73.11
2022-08-17T04:20:20.694Z,72.95
2022-08-17T04:23:10.181Z,72.05
2022-08-17T04:25:42.641Z,72.00
2022-08-17T04:28:16.310Z,71.94
2022-08-17T04:30:47.846Z,71.33
2022-08-17T04:33:19.766Z,71.63
2022-08-17T04:35:51.133Z,71.62
2022-08-17T04:38:24.991Z,71.48
2022-08-17T04:41:12.368Z,71.48
2022-08-17T04:43:43.371Z,71.25
2022-08-17T04:46:17.925Z,70.90
2022-08-17T04:48:49.909Z,70.06
2022-08-17T04:51:32.167Z,69.81
2022-08-17T04:54:05.061Z,69.58
2022-08-17T04:56:33.939Z,69.85
2022-08-17T04:59:18.951Z,69.71
2022-08-17T05:01:49.459Z,69.47
2022-08-17T05:04:34.105Z,69.24
2022-08-17T05:07:05.467Z,68.25
2022-08-17T05:09:33.623Z,67.46
2022-08-17T05:12:03.106Z,67.18
2022-08-17T05:14:33.561Z,67.09
2022-08-17T05:17:04.626Z,67.42
2022-08-17T05:19:37.912Z,67.20
2022-08-17T05:22:07.204Z,67.34
2022-08-17T05:24:39.043Z,67.34
2022-08-17T05:27:16.764Z,67.26
2022-08-17T05:29:47.342Z,66.52
2022-08-17T05:32:39.054Z,66.20
2022-08-17T05:35:06.155Z,65.50
2022-08-17T05:37:34.152Z,64.97
2022-08-17T05:40:02.243Z,64.41
2022-08-17T05:42:33.132Z,64.35
2022-08-17T05:45:01.224Z,63.96
2022-08-17T05:47:31.162Z,64.42
2022-08-17T05:50:01.117Z,64.79
2022-08-17T05:52:48.655Z,64.81
2022-08-17T05:55:54.822Z,65.23
2022-08-17T05:58:56.699Z,65.20
2022-08-17T06:01:34.247Z,65.72
2022-08-17T06:04:40.342Z,66.40
2022-08-17T06:07:11.453Z,66.69
2022-08-17T06:09:55.863Z,66.44
2022-08-17T06:12:55.646Z,65.52
2022-08-17T06:15:48.081Z,64.72
2022-08-17T06:18:20.867Z,64.06
2022-08-17T06:20:57.517Z,63.33
2022-08-17T06:23:47.256Z,62.54
2022-08-17T06:26:38.432Z,62.24
2022-08-17T06:29:41.248Z,62.28
2022-08-17T06:32:12.806Z,62.40
2022-08-17T06:34:44.450Z,61.93
2022-08-17T06:37:31.880Z,62.21
2022-08-17T06:40:36.712Z,62.12
2022-08-17T06:43:33.591Z,62.16
2022-08-17T06:46:24.643Z,61.82
2022-08-17T06:49:13.893Z,62.28
2022-08-17T06:51:53.184Z,62.15
2022-08-17T06:54:37.775Z,62.34
2022-08-17T06:57:25.725Z,61.73
2022-08-17T06:59:59.822Z,61.42
2022-08-17T07:03:02.109Z,61.51
2022-08-17T07:05:42.574Z,61.27
2022-08-17T07:08:35.378Z,61.36
2022-08-17T07:11:09.186Z,61.25
2022-08-17T07:13:52.194Z,60.76
2022-08-17T07:16:33.860Z,60.60
2022-08-17T07:19:04.917Z,60.83
2022-08-17T07:21:55.685Z,61.30
2022-08-17T07:24:48.558Z,61.21
2022-08-17T07:27:26.210Z,61.30
2022-08-17T07:30:22.865Z,61.10
2022-08-17T07:33:14.266Z,60.66
2022-08-17T07:35:44.657Z,60.12
2022-08-17T07:38:30.952Z,59.45
2022-08-17T07:41:21.062Z,59.58
2022-08-17T07:43:53.896Z,59.52
2022-08-17T07:46:43.154Z,59.99
2022-08-17T07:49:12.757Z,60.35
2022-08-17T07:51:56.548Z,61.33
2022-08-17T07:54:30.995Z,61.93
2022-08-17T07:57:04.607Z,62.15
2022-08-17T07:59:35.656Z,62.76
2022-08-17T08:02:21.647Z,63.55
2022-08-17T08:05:10.099Z,63.71
2022-08-17T08:07:56.159Z,64.10
2022-08-17T08:10:45.081Z,64.86
2022-08-17T08:13:22.782Z,64.97
2022-08-17T08:15:55.915Z,65.33
2022-08-17T08:18:47.610Z,65.64
2022-08-17T08:21:32.346Z,66.25
2022-08-17T08:24:00.964Z,66.48
2022-08-17T08:26:47.093Z,66.75
2022-08-17T08:29:29.974Z,66.80
2022-08-17T08:32:38.390Z,67.23
2022-08-17T08:35:19.356Z,67.08
2022-08-17T08:38:15.090Z,66.95
2022-08-17T08:40:57.081Z,66.79
2022-08-17T08:43:37.862Z,66.92
2022-08-17T08:46:14.580Z,66.95
2022-08-17T08:49:12.697Z,67.26
2022-08-17T08:51:57.234Z,67.70
2022-08-17T08:54:40.002Z,68.09
2022-08-17T08:57:33.810Z,68.27
2022-08-17T09:00:17.206Z,68.55
2022-08-17T09:03:36.725Z,68.94
2022-08-17T09:06:37.329Z,69.13
2022-08-17T09:09:38.855Z,69.32
2022-08-17T09:12:22.296Z,69.76
2022-08-17T09:15:03.096Z,69.75
2022-08-17T09:17:47.788Z,70.36
2022-08-17T09:20:27.428Z,70.48
2022-08-17T09:23:07.887Z,70.89
2022-08-17T09:26:10.949Z,71.17
2022-08-17T09:28:43.565Z,71.33
2022-08-17T09:31:18.532Z,71.26
2022-08-17T09:33:49.080Z,71.31
2022-08-17T09:36:30.691Z,70.90
2022-08-17T09:39:04.381Z,70.65
2022-08-17T09:42:03.508Z,70.59
2022-08-17T09:44:40.491Z,70.79
2022-08-17T09:47:13.910Z,70.94
2022-08-17T09:49:51.914Z,71.09
2022-08-17T09:52:26.173Z,70.75
2022-08-17T09:54:56.884Z,70.28
2022-08-17T09:57:30.733Z,70.50
2022-08-17T10:00:17.541Z,70.33
2022-08-17T10:03:20.410Z,70.26
2022-08-17T10:06:03.053Z,70.44
2022-08-17T10:08:55.010Z,70.33
2022-08-17T10:11:52.167Z,70.67
2022-08-17T10:14:37.970Z,70.65
2022-08-17T10:17:30.447Z,70.56
2022-08-17T10:20:30.751Z,70.62
2022-08-17T10:23:36.879Z,70.69
2022-08-17T10:26:27.789Z,70.77
2022-08-17T10:29:29.011Z,70.76
2022-08-17T10:32:04.784Z,70.63
2022-08-17T10:35:09.017Z,70.64
2022-08-17T10:37:54.427Z,70.49
2022-08-17T10:40:51.488Z,70.67
2022-08-17T10:43:29.942Z,70.32
2022-08-17T10:46:29.928Z,70.85
2022-08-17T10:49:17.810Z,70.76
2022-08-17T10:51:50.935Z,70.77
2022-08-17T10:54:38.890Z,70.72
2022-08-17T10:57:36.872Z,70.62
2022-08-17T11:00:16.566Z,70.59
2022-08-17T11:02:57.665Z,70.64
2022-08-17T11:05:49.346Z,70.72
2022-08-17T11:08:26.283Z,70.56
2022-08-17T11:11:16.398Z,70.79
2022-08-17T11:13:53.394Z,70.81
2022-08-17T11:16:27.091Z,71.00
2022-08-17T11:19:09.412Z,70.86
2022-08-17T11:22:00.681Z,70.79
2022-08-17T11:24:52.362Z,70.65
2022-08-17T11:27:28.032Z,70.76
2022-08-17T11:30:03.172Z,70.50
2022-08-17T11:32:47.577Z,70.14
2022-08-17T11:35:22.983Z,70.74
2022-08-17T11:38:00.210Z,70.35
2022-08-17T11:41:02.234Z,70.67
2022-08-17T11:43:48.428Z,70.83
2022-08-17T11:46:22.629Z,70.54
2022-08-17T11:49:12.061Z,70.60
2022-08-17T11:52:13.282Z,71.13
2022-08-17T11:54:45.841Z,71.14
2022-08-17T11:57:33.020Z,70.72
2022-08-17T12:00:11.538Z,70.80
2022-08-17T12:02:48.532Z,70.92
2022-08-17T12:05:23.872Z,71.37
2022-08-17T12:08:21.973Z,71.38
2022-08-17T12:10:54.111Z,71.68
2022-08-17T12:13:30.479Z,71.68
2022-08-17T12:16:06.182Z,71.43
2022-08-17T12:18:38.112Z,71.54
2022-08-17T12:21:27.042Z,71.83
2022-08-17T12:24:14.311Z,71.92
2022-08-17T12:26:44.899Z,71.77
2022-08-17T12:29:39.073Z,72.11
2022-08-17T12:32:34.393Z,71.96
2022-08-17T12:35:30.257Z,72.10
2022-08-17T12:37:59.125Z,72.11
2022-08-17T12:40:32.365Z,72.53
2022-08-17T12:43:04.557Z,72.29
2022-08-17T12:45:37.909Z,73.06
2022-08-17T12:48:24.644Z,72.80
2022-08-17T12:50:53.338Z,73.11
2022-08-17T12:53:25.701Z,72.89
2022-08-17T12:55:55.826Z,73.45
2022-08-17T12:58:29.581Z,73.54
2022-08-17T13:01:09.478Z,73.43
2022-08-17T13:03:39.779Z,73.59
2022-08-17T13:06:10.884Z,73.76
2022-08-17T13:08:44.769Z,73.71
2022-08-17T13:11:16.760Z,73.81
2022-08-17T13:13:47.728Z,73.96
2022-08-17T13:16:18.883Z,74.19
2022-08-17T13:19:09.040Z,74.22
2022-08-17T13:21:39.443Z,74.33
2022-08-17T13:30:12.813Z,75.16
2022-08-17T13:32:46.261Z,74.96
2022-08-17T13:35:39.583Z,75.17
2022-08-17T13:38:13.929Z,75.10
2022-08-17T13:40:55.546Z,75.23
2022-08-17T13:43:47.232Z,75.27
2022-08-17T13:46:27.179Z,75.15
2022-08-17T13:49:03.327Z,75.41
2022-08-17T13:51:36.303Z,75.64
2022-08-17T13:54:07.679Z,75.66
2022-08-17T13:56:41.402Z,75.89
2022-08-17T13:59:53.807Z,76.13
2022-08-17T14:02:17.942Z,76.14
2022-08-17T14:04:47.961Z,76.56
2022-08-17T14:07:16.586Z,76.61
2022-08-17T14:10:16.648Z,76.38
2022-08-17T14:12:46.174Z,76.82
2022-08-17T14:18:02.105Z,77.11
2022-08-17T14:20:30.183Z,77.10
2022-08-17T14:25:43.884Z,77.58
2022-08-17T14:28:11.930Z,77.73
2022-08-17T14:30:41.890Z,77.51
2022-08-17T14:33:10.252Z,77.67
2022-08-17T14:35:38.336Z,77.54
2022-08-17T14:38:06.603Z,77.86
2022-08-17T14:40:36.009Z,78.19
2022-08-17T14:43:22.531Z,78.20
2022-08-17T14:45:50.706Z,78.33
2022-08-17T14:48:18.673Z,78.67
2022-08-17T14:50:46.818Z,78.91
2022-08-17T14:53:17.244Z,79.00
2022-08-17T14:55:47.152Z,79.03
2022-08-17T14:58:17.049Z,79.72
2022-08-17T15:00:45.214Z,79.28
2022-08-17T15:06:00.152Z,80.01
2022-08-17T15:08:29.189Z,79.83
2022-08-17T15:10:59.629Z,79.65
2022-08-17T15:13:30.205Z,80.11
2022-08-17T15:16:00.555Z,80.10
2022-08-17T15:18:29.101Z,80.18
2022-08-17T15:21:01.782Z,80.21
2022-08-17T15:23:29.887Z,80.10
2022-08-17T15:25:57.935Z,80.07
2022-08-17T15:28:26.821Z,80.25
2022-08-17T15:30:55.102Z,80.33
2022-08-17T15:33:32.225Z,80.34
2022-08-17T15:36:04.237Z,80.20
2022-08-17T15:38:34.871Z,80.42
2022-08-17T15:41:04.601Z,80.66
2022-08-17T15:43:33.476Z,80.72
2022-08-17T15:46:32.980Z,80.57
2022-08-17T15:49:03.516Z,80.56
2022-08-17T15:51:34.361Z,80.66
2022-08-17T15:54:19.120Z,80.73
2022-08-17T15:56:51.139Z,80.69
2022-08-17T15:59:20.105Z,80.65
2022-08-17T16:03:01.640Z,80.93
2022-08-17T16:04:39.172Z,80.88
2022-08-17T16:07:12.209Z,81.14
2022-08-17T16:09:40.233Z,81.08
2022-08-17T16:12:20.284Z,81.12
2022-08-17T16:14:50.838Z,81.25
2022-08-17T16:17:38.918Z,81.17
2022-08-17T16:20:07.544Z,81.03
2022-08-17T16:22:41.599Z,80.88
2022-08-17T16:25:14.749Z,81.24
2022-08-17T16:27:43.444Z,80.89
2022-08-17T16:30:17.082Z,81.11
2022-08-17T16:32:48.123Z,81.14
2022-08-17T16:35:18.963Z,81.10
2022-08-17T16:37:47.561Z,81.44
2022-08-17T16:40:17.718Z,81.62
2022-08-17T16:42:49.109Z,81.25
2022-08-17T16:45:20.244Z,81.60
2022-08-17T16:47:50.543Z,81.07
2022-08-17T16:50:21.624Z,81.65
2022-08-17T16:52:51.693Z,81.41
2022-08-17T16:55:22.661Z,81.50
2022-08-17T16:57:50.959Z,81.71
2022-08-17T17:03:21.035Z,81.73
2022-08-17T17:06:11.304Z,81.44
2022-08-17T17:08:49.543Z,81.20
2022-08-17T17:11:45.417Z,81.30
2022-08-17T17:14:29.104Z,81.22
2022-08-17T17:17:11.120Z,81.40
2022-08-17T17:19:46.272Z,81.76
2022-08-17T17:22:26.065Z,81.56
2022-08-17T17:25:16.163Z,81.66
2022-08-17T17:27:51.430Z,81.95
2022-08-17T17:30:45.415Z,82.05
2022-08-17T17:33:18.850Z,82.14
2022-08-17T17:36:00.333Z,82.22
2022-08-17T17:38:50.114Z,82.70
2022-08-17T17:41:44.605Z,82.59
2022-08-17T17:44:19.811Z,82.69
2022-08-17T17:46:54.685Z,82.51
2022-08-17T17:49:24.457Z,82.71
2022-08-17T17:52:24.915Z,82.66
2022-08-17T17:55:01.955Z,82.66
2022-08-17T17:57:52.353Z,82.84
2022-08-17T18:00:27.445Z,83.21
2022-08-17T18:03:10.341Z,83.17
2022-08-17T18:05:56.728Z,83.18
2022-08-17T18:08:43.979Z,83.15
2022-08-17T18:11:34.915Z,83.14
2022-08-17T18:14:19.211Z,82.99
2022-08-17T18:16:54.050Z,83.26
2022-08-17T18:19:26.172Z,82.93
2022-08-17T18:22:16.940Z,83.23
2022-08-17T18:24:47.925Z,83.53
2022-08-17T18:27:35.200Z,83.55
2022-08-17T18:30:15.182Z,83.38
2022-08-17T18:32:47.183Z,83.48
2022-08-17T18:35:15.148Z,83.34
2022-08-17T18:37:46.225Z,83.63
2022-08-17T18:40:22.821Z,83.45
2022-08-17T18:43:11.504Z,83.76
2022-08-17T18:45:51.862Z,83.98
2022-08-17T18:48:25.956Z,83.75
2022-08-17T18:50:57.257Z,83.63
2022-08-17T18:53:41.627Z,83.85
2022-08-17T18:56:31.992Z,83.50
2022-08-17T18:59:17.483Z,84.00
2022-08-17T19:02:38.666Z,83.99
2022-08-17T19:05:14.734Z,83.83
2022-08-17T19:07:48.813Z,83.90
2022-08-17T19:10:30.402Z,84.05
2022-08-17T19:13:13.853Z,84.16
2022-08-17T19:16:12.049Z,83.87
2022-08-17T19:19:00.190Z,84.24
2022-08-17T19:21:40.014Z,84.11
2022-08-17T19:24:23.433Z,84.45
2022-08-17T19:27:15.137Z,84.22
2022-08-17T19:29:51.478Z,84.58
2022-08-17T19:32:30.816Z,84.54
2022-08-17T19:34:59.122Z,84.74
2022-08-17T19:37:59.034Z,84.67
2022-08-17T19:40:51.769Z,84.51
2022-08-17T19:43:28.663Z,84.71
2022-08-17T19:46:08.313Z,84.55
2022-08-17T19:48:37.634Z,84.60
2022-08-17T19:51:18.532Z,84.60
2022-08-17T19:54:06.660Z,84.41
2022-08-17T19:57:20.462Z,84.65
2022-08-17T20:00:24.637Z,84.65
2022-08-17T20:03:16.979Z,84.65
2022-08-17T20:06:12.041Z,84.54
2022-08-17T20:09:05.310Z,84.78
2022-08-17T20:11:46.286Z,84.50
2022-08-17T20:14:18.358Z,84.59
2022-08-17T20:16:46.390Z,84.68
2022-08-17T20:19:29.988Z,84.78
2022-08-17T20:22:30.550Z,85.11
2022-08-17T20:25:31.745Z,84.86
2022-08-17T20:28:15.969Z,84.82
2022-08-17T20:30:45.472Z,85.07
2022-08-17T20:33:30.917Z,84.93
2022-08-17T20:36:19.533Z,84.74
2022-08-17T20:38:54.828Z,85.29
2022-08-17T20:41:25.931Z,85.25
2022-08-17T20:44:00.125Z,85.41
2022-08-17T20:47:02.228Z,85.26
2022-08-17T20:49:51.682Z,85.15
2022-08-17T20:52:42.114Z,85.23
2022-08-17T20:55:31.301Z,85.16
2022-08-17T20:58:23.662Z,85.01
2022-08-17T21:00:58.285Z,85.07
2022-08-17T21:03:47.555Z,85.33
2022-08-17T21:06:22.478Z,85.55
2022-08-17T21:08:59.443Z,85.46
2022-08-17T21:12:02.509Z,85.18
2022-08-17T21:14:29.420Z,85.61
2022-08-17T21:17:07.522Z,85.75
2022-08-17T21:20:00.627Z,85.57
2022-08-17T21:22:36.514Z,85.76
2022-08-17T21:25:33.286Z,85.80
2022-08-17T21:28:14.116Z,85.64
2022-08-17T21:30:44.491Z,85.59
2022-08-17T21:33:22.805Z,85.42
2022-08-17T21:36:17.437Z,85.74
2022-08-17T21:39:09.813Z,85.55
2022-08-17T21:41:58.314Z,85.39
2022-08-17T21:44:37.805Z,85.69
2022-08-17T21:47:25.266Z,85.83
2022-08-17T21:49:54.932Z,85.50
2022-08-17T21:52:25.090Z,85.29
2022-08-17T21:54:57.174Z,85.31
2022-08-17T21:57:32.611Z,85.67
2022-08-17T22:00:17.149Z,85.81
2022-08-17T22:02:59.568Z,86.08
2022-08-17T22:05:38.443Z,85.74
2022-08-17T22:08:16.677Z,85.57
2022-08-17T22:10:49.616Z,85.30
2022-08-17T22:13:22.622Z,85.77
2022-08-17T22:16:29.049Z,85.89
2022-08-17T22:19:00.710Z,85.82
2022-08-17T22:21:28.770Z,85.79
2022-08-17T22:24:22.657Z,85.96
2022-08-17T22:27:02.267Z,85.76
2022-08-17T22:29:57.540Z,85.70
2022-08-17T22:32:43.697Z,85.77
2022-08-17T22:35:26.414Z,85.82
2022-08-17T22:37:54.403Z,85.95
2022-08-17T22:40:36.696Z,85.60
2022-08-17T22:43:04.831Z,85.90
2022-08-17T22:45:34.262Z,86.14
2022-08-17T22:48:04.048Z,85.83
2022-08-17T22:50:33.821Z,86.03
2022-08-17T22:53:37.806Z,86.05
2022-08-17T22:56:26.060Z,86.07
2022-08-17T22:59:17.109Z,85.94
2022-08-17T23:02:05.993Z,86.33
2022-08-17T23:04:39.324Z,85.75
2022-08-17T23:07:07.547Z,86.03
2022-08-17T23:09:36.479Z,86.15
2022-08-17T23:12:09.652Z,86.17
2022-08-17T23:14:41.537Z,86.12
2022-08-17T23:17:09.613Z,85.98
2022-08-17T23:19:38.587Z,85.99
2022-08-17T23:22:09.867Z,86.23
2022-08-17T23:24:45.019Z,86.32
2022-08-17T23:27:13.589Z,86.18
2022-08-17T23:29:42.888Z,86.35
2022-08-17T23:32:15.712Z,86.21
2022-08-17T23:34:45.617Z,86.42
2022-08-17T23:37:13.308Z,85.90
2022-08-17T23:39:43.188Z,85.98
2022-08-17T23:42:12.131Z,85.91
2022-08-17T23:44:42.293Z,85.62
2022-08-17T23:47:12.783Z,85.55
2022-08-17T23:49:41.975Z,85.25
2022-08-17T23:52:15.038Z,85.57
2022-08-17T23:54:48.222Z,85.51
2022-08-17T23:57:20.438Z,85.62
